METAR Data
IDs: Format: Raw Decoded Include TAF

Data at: 0159 UTC 24 Sep 2018

KPHD 240153Z AUTO 00000KT 10SM CLR 14/13 A3019 RMK AO2 SLP222 T01390128
KPHD 240053Z AUTO 00000KT 10SM CLR 14/13 A3018 RMK AO2 SLP221 T01440133
KPHD 232353Z AUTO 00000KT 10SM CLR 16/14 A3018 RMK AO2 SLP218 T01610139 10217 20161 53006
KPHD 232253Z AUTO 06003KT 10SM CLR 19/13 A3017 RMK AO2 SLP214 T01940133
KPHD 232153Z AUTO 07006KT 10SM CLR 21/13 A3016 RMK AO2 SLP212 T02060133
KPHD 232053Z AUTO VRB04KT 10SM CLR 21/13 A3016 RMK AO2 SLP210 T02110133 55008
KPHD 231953Z AUTO 08005KT 10SM CLR 19/13 A3016 RMK AO2 SLP211 T01940133
KPHD 231853Z AUTO 04004KT 10SM CLR 19/13 A3017 RMK AO2 SLP214 T01940128
KPHD 231753Z AUTO 05004KT 10SM CLR 19/13 A3018 RMK AO2 SLP220 T01890128 10189 20111 57009
KPHD 231653Z AUTO 03005KT 10SM CLR 18/12 A3019 RMK AO2 SLP223 T01780122
KPHD 231553Z AUTO 07005KT 10SM CLR 17/12 A3020 RMK AO2 SLP226 T01670122
KPHD 231453Z AUTO 05006KT 10SM CLR 15/11 A3021 RMK AO2 SLP230 T01500111 50008
KPHD 231353Z AUTO 03006KT 10SM CLR 13/11 A3021 RMK AO2 SLP231 T01330111
KPHD 231253Z AUTO 36003KT 10SM CLR 12/11 A3020 RMK AO2 SLP226 T01170106
KPHD 231153Z AUTO 00000KT 9SM CLR 11/10 A3019 RMK AO2 SLP224 T01110100 10122 20106 53000
KPHD 231053Z AUTO 00000KT 10SM CLR 11/10 A3018 RMK AO2 SLP221 T01110100
KPHD 230953Z AUTO 00000KT 9SM CLR 11/10 A3018 RMK AO2 SLP218 T01110100
KPHD 230853Z AUTO 00000KT 8SM CLR 11/10 A3019 RMK AO2 SLP222 T01110100 55009
KPHD 230753Z AUTO 00000KT 10SM CLR 12/11 A3017 RMK AO2 SLP217 T01170106
KPHD 230653Z AUTO 00000KT 10SM CLR 11/11 A3019 RMK AO2 SLP224 T01110106
KPHD 230553Z AUTO 00000KT 10SM CLR 12/11 A3021 RMK AO2 SLP230 T01220106 10144 20117 56005
KPHD 230453Z AUTO 00000KT 10SM CLR 13/11 A3022 RMK AO2 SLP233 T01280111 401890122
KPHD 230353Z AUTO 04003KT 10SM CLR 13/11 A3022 RMK AO2 SLP231 T01330111
KPHD 230253Z AUTO 35003KT 10SM CLR 14/12 A3023 RMK AO2 SLP236 T01390117 53005
KPHD 230153Z AUTO 00000KT 10SM CLR 14/12 A3022 RMK AO2 SLP234 T01390122
KPHD 230053Z AUTO 07003KT 10SM CLR 14/12 A3022 RMK AO2 SLP232 T01440117
KPHD 222353Z AUTO 01003KT 10SM CLR 14/12 A3021 RMK AO2 SLP231 T01440117 10172 20144 58005
KPHD 222253Z AUTO 00000KT 10SM CLR 16/11 A3023 RMK AO2 SLP236 T01560106
KPHD 222153Z AUTO 00000KT 10SM CLR 16/10 A3023 RMK AO2 SLP237 T01610100
KPHD 222053Z AUTO 02004KT 10SM CLR 17/10 A3023 RMK AO2 SLP235 T01670100 56016
KPHD 221953Z AUTO 36005KT 10SM CLR 17/10 A3024 RMK AO2 SLP239 T01670100
KPHD 221853Z AUTO VRB04KT 10SM FEW032 17/10 A3025 RMK AO2 SLP241 T01720100
KPHD 221753Z AUTO 02005KT 10SM OVC032 17/09 A3028 RMK AO2 SLP250 T01670094 10172 20150 55003
KPHD 221653Z AUTO 02007KT 10SM BKN032 17/10 A3027 RMK AO2 SLP248 T01670100
KPHD 221614Z AUTO 03008KT 350V060 10SM SCT030 17/10 A3028 RMK AO2 T01670100
KPHD 221553Z AUTO 04006KT 10SM BKN029 17/11 A3028 RMK AO2 SLP251 T01670106
KPHD 221516Z AUTO 03006KT 10SM OVC031 16/11 A3028 RMK AO2 T01610106
KPHD 221453Z AUTO 05005KT 10SM BKN027 OVC035 16/11 A3029 RMK AO2 SLP253 T01610106 51018
KPHD 221418Z AUTO 03007KT 10SM BKN025 16/11 A3027 RMK AO2 T01610111